Het weer levert geen direct gevaar op.    Er zijn geen waarschuwingen afgegeven.


Onweer radar Meer informatie blitzortung!


Regen radar Meer informatie rain snow radar


Bezoek onze andere website:

Template documentation
and downloads

And another site

Forum Leuven-template

EUWEATHER.EU

Verwachtingen Meteociel


U vindt ons ook hier:

Het Weer Aktueel

UK Metoffice

European Weather Network

WeatherCloud

Weather Underground

Benelux Weer Netwerk

AWEKAS

WeatherlinkIP

HAMweather, WeatherForYou, PWS Weather

Wetterpage 24

Wetter.com



METAR rapporten vliegvelden

   
EBAW - Antwerp
Gewijzigd: 17-10-2019 07:50
Grotendeels bewolkt  
Grotendeels bewolkt  
   Wind: ZW 13 km/h
Wind: ZW 13 km/h
Temperatuur: 12°C
Dauwpunt: 11°C
Vochtigheid: 94%
Barometer: 1009 hPa
Bewolking: Grotendeels bewolkt
Zicht: 8 km
Bewolking: Licht bewolkt 700 ft,
Gedeeltelijk bewolkt 900 ft,
Grotendeels bewolkt 4000 ft
EBAW 170550Z 23007KT 8000 FEW007 SCT009 BKN040 12/11 Q1009 TEMPO BKN008
EBLG - Li├Ęge
Gewijzigd: 17-10-2019 07:50
Lichte (mot)regen, Regen, Grotendeels bewolkt  
Lichte (mot)regen, Regen, Grotendeels bewolkt  
   Wind: ZZW 18.5 km/h
Wind: ZZW 18.5 km/h
Temperatuur: 14°C
Dauwpunt: 13°C
Vochtigheid: 94%
Barometer: 1009 hPa
Bewolking: Grotendeels bewolkt
Zicht: 8 km
Bewolking: Grotendeels bewolkt 600 ft,
Grotendeels bewolkt 900 ft
EBLG 170550Z 21010KT 8000 -DZRA BKN006 BKN009 14/13 Q1009 TEMPO 3000 RADZ BKN005
EBCV - Mons/Bergen
Gewijzigd: 17-10-2019 07:55
Grotendeels bewolkt  
Grotendeels bewolkt  
   Wind: ZZW 9.3 km/h
Wind: ZZW 9.3 km/h
Temperatuur: 11°C
Dauwpunt: 11°C
Vochtigheid: 100%
Barometer: 1010 hPa
Bewolking: Grotendeels bewolkt
Zicht: meer dan 10 km
Bewolking: Grotendeels bewolkt 4500 ft
EBCV 170555Z AUTO 21005KT 9999 BKN045/// 11/11 Q1010 BLU
EHBK - Maastricht
Gewijzigd: 17-10-2019 07:55
Grotendeels bewolkt  
Grotendeels bewolkt  
   Wind: ZZW 20.4 km/h
Wind: ZZW 20.4 km/h
Temperatuur: 14°C
Dauwpunt: 13°C
Vochtigheid: 94%
Barometer: 1009 hPa
Bewolking: Grotendeels bewolkt
Zicht: 6 km
Bewolking: Licht bewolkt 500 ft,
Gedeeltelijk bewolkt 700 ft,
Grotendeels bewolkt 800 ft
EHBK 170555Z AUTO 21011KT 180V240 6000 FEW005 SCT007 BKN008 14/13 Q1009 TEMPO 9000 BKN012
ELLX - Luxemburg
Gewijzigd: 17-10-2019 07:50
Grotendeels bewolkt  
Grotendeels bewolkt  
   Wind: Zuiden 14.8 km/h
Wind: Zuiden 14.8 km/h
Temperatuur: 12°C
Dauwpunt: 11°C
Vochtigheid: 94%
Barometer: 1012 hPa
Bewolking: Grotendeels bewolkt
Zicht: meer dan 10 km
Bewolking: Gedeeltelijk bewolkt 600 ft,
Grotendeels bewolkt 1000 ft
ELLX 170550Z 19008KT 150V230 9999 SCT006 BKN010 12/11 Q1012 NOSIG
EBOS - Oostende
Gewijzigd: 17-10-2019 07:50
Gedeeltelijk bewolkt  
Gedeeltelijk bewolkt  
   Wind: Westen 3.7 km/h
Wind: Westen 3.7 km/h
Temperatuur: 11°C
Dauwpunt: 10°C
Vochtigheid: 94%
Barometer: 1009 hPa
Bewolking: Gedeeltelijk bewolkt
Zicht: meer dan 10 km
Bewolking: Licht bewolkt 1800 ft,
Gedeeltelijk bewolkt 3000 ft
EBOS 170550Z 26002KT 9999 FEW018 SCT030 11/10 Q1009 TEMPO 4500 SHRA

Script ontwikkeld door  Saratoga-weather.org Aangepast voor de template door  Weerstation Leuven

Apparatuur in gebruik:

Weerstation
Davis VP2

Weerprogramma
Meteobridge

Weercomputer
Asus WL -330N3G

Webleverancier
Onecom

Davis VP2

Meteobridge

Asus WL -330N3G

Onecom